Time;durP1;ratioP1;P1;durP2;ratioP2;P2;SDS_P1;SDS_P2;PMS_P1;PMS_P2;Temp;Humidity;BMP_temperature;BMP_pressure;BME280_temperature;BME280_humidity;BME280_pressure;Samples;Min_cycle;Max_cycle;Signal;HPM_P1;HPM_P2
2023/04/09 00:01:54;;;;;;;;;;;8.80;99.90;;;;;;5073346;28;19995;-65
2023/04/09 00:04:21;;;;;;;;;;;8.80;99.90;;;;;;5073733;28;19939;-65
2023/04/09 00:06:46;;;;;;;;;;;8.80;99.90;;;;;;5072892;28;20023;-65
2023/04/09 00:09:12;;;;;;;;;;;8.80;99.90;;;;;;5073884;28;19975;-65
2023/04/09 00:11:38;;;;;;;;;;;8.80;99.90;;;;;;5074522;28;19925;-67
2023/04/09 00:14:03;;;;;;;;;;;8.80;99.90;;;;;;5073577;28;19931;-65
2023/04/09 00:16:29;;;;;;;;;;;8.80;99.90;;;;;;5056910;28;19990;-65
2023/04/09 00:18:55;;;;;;;;;;;8.80;99.90;;;;;;5073312;28;19982;-64
2023/04/09 00:21:20;;;;;;;;;;;8.70;99.90;;;;;;5073337;28;19935;-64
2023/04/09 00:23:46;;;;;;;;;;;8.70;99.90;;;;;;5056202;28;20019;-65
2023/04/09 00:26:11;;;;;;;;;;;8.80;99.90;;;;;;5073366;28;19932;-65
2023/04/09 00:28:37;;;;;;;;;;;8.70;99.90;;;;;;5039922;28;19924;-65
2023/04/09 00:31:03;;;;;;;;;;;8.80;99.90;;;;;;5056098;28;19924;-64
2023/04/09 00:33:28;;;;;;;;;;;8.80;99.90;;;;;;5073260;28;19924;-65
2023/04/09 00:35:54;;;;;;;;;;;8.70;99.90;;;;;;5072951;28;20004;-66
2023/04/09 00:38:19;;;;;;;;;;;8.70;99.90;;;;;;5074329;28;19990;-65
2023/04/09 00:40:49;;;;;;;;;;;8.70;99.90;;;;;;5086014;28;19924;-64
2023/04/09 00:43:15;;;;;;;;;;;8.70;99.90;;;;;;5076572;28;19932;-65
2023/04/09 00:45:41;;;;;;;;;;;8.70;99.90;;;;;;5076367;28;19928;-65
2023/04/09 00:48:07;;;;;;;;;;;8.70;99.90;;;;;;5075989;28;19930;-65
2023/04/09 00:50:33;;;;;;;;;;;8.70;99.90;;;;;;5059660;28;19924;-65
2023/04/09 00:52:59;;;;;;;;;;;8.70;99.90;;;;;;5093937;28;19924;-64
2023/04/09 00:55:24;;;;;;;;;;;8.70;99.90;;;;;;5059552;28;19976;-65
2023/04/09 00:57:50;;;;;;;;;;;8.70;99.90;;;;;;5075796;28;20544;-66
2023/04/09 01:00:15;;;;;;;;;;;8.70;99.90;;;;;;5094046;28;20282;-65
2023/04/09 01:02:42;;;;;;;;;;;8.70;99.90;;;;;;5094074;28;19924;-66
2023/04/09 01:05:08;;;;;;;;;;;8.70;99.90;;;;;;5059162;28;19973;-66
2023/04/09 01:07:41;;;;;;;;;;;8.70;99.90;;;;;;5075933;28;20444;-66
2023/04/09 01:10:19;;;;;;;;;;;8.70;99.90;;;;;;5058975;28;19927;-65
2023/04/09 01:13:04;;;;;;;;;;;8.70;99.90;;;;;;5093873;28;19924;-66
2023/04/09 01:15:32;;;;;;;;;;;8.70;99.90;;;;;;5075891;28;20023;-64
2023/04/09 01:18:00;;;;;;;;;;;8.70;99.90;;;;;;5092992;28;19925;-64
2023/04/09 01:20:33;;;;;;;;;;;8.70;99.90;;;;;;5059020;28;19924;-65
2023/04/09 01:23:14;;;;;;;;;;;8.70;99.90;;;;;;5092904;28;20263;-64
2023/04/09 01:25:48;;;;;;;;;;;8.60;99.90;;;;;;5075569;28;19939;-65
2023/04/09 01:28:18;;;;;;;;;;;8.60;99.90;;;;;;5093139;28;19931;-65
2023/04/09 01:30:47;;;;;;;;;;;8.60;99.90;;;;;;5093006;28;20369;-65
2023/04/09 01:33:14;;;;;;;;;;;8.60;99.90;;;;;;5058655;28;19924;-65
2023/04/09 01:35:41;;;;;;;;;;;8.60;99.90;;;;;;5075439;28;19924;-65
2023/04/09 01:38:07;;;;;;;;;;;8.60;99.90;;;;;;5092855;28;20046;-65
2023/04/09 01:40:33;;;;;;;;;;;8.60;99.90;;;;;;5054676;28;20386;-64
2023/04/09 01:43:00;;;;;;;;;;;8.60;99.90;;;;;;5054343;28;19998;-65
2023/04/09 01:45:25;;;;;;;;;;;8.60;99.90;;;;;;5071615;28;19924;-64
2023/04/09 01:47:51;;;;;;;;;;;8.60;99.90;;;;;;5055082;28;19970;-68
2023/04/09 01:50:17;;;;;;;;;;;8.60;99.90;;;;;;5071445;28;19975;-66
2023/04/09 01:52:42;;;;;;;;;;;8.60;99.90;;;;;;5054776;28;20447;-66
2023/04/09 01:55:08;;;;;;;;;;;8.60;99.90;;;;;;5054699;28;19931;-67
2023/04/09 01:57:34;;;;;;;;;;;8.60;99.90;;;;;;5071796;28;19945;-66
2023/04/09 01:59:59;;;;;;;;;;;8.60;99.90;;;;;;5054491;28;19972;-64
2023/04/09 02:02:34;;;;;;;;;;;8.60;99.90;;;;;;5071257;28;19924;-65
2023/04/09 02:05:02;;;;;;;;;;;8.60;99.90;;;;;;5071128;28;19932;-65
2023/04/09 02:07:37;;;;;;;;;;;8.60;99.90;;;;;;5071522;28;19940;-66
2023/04/09 02:10:04;;;;;;;;;;;8.60;99.90;;;;;;5070787;28;19925;-66
2023/04/09 02:12:30;;;;;;;;;;;8.60;99.90;;;;;;5071413;28;19982;-65
2023/04/09 02:14:56;;;;;;;;;;;8.60;99.90;;;;;;5072092;28;20288;-68
2023/04/09 02:17:22;;;;;;;;;;;8.60;99.90;;;;;;5071535;28;19932;-65
2023/04/09 02:19:47;;;;;;;;;;;8.60;99.90;;;;;;5071040;28;19967;-64
2023/04/09 02:22:14;;;;;;;;;;;8.60;99.90;;;;;;5053872;28;20391;-65
2023/04/09 02:24:40;;;;;;;;;;;8.60;99.90;;;;;;5072181;28;19924;-66
2023/04/09 02:27:06;;;;;;;;;;;8.50;99.90;;;;;;5070439;28;20382;-66
2023/04/09 02:29:31;;;;;;;;;;;8.50;99.90;;;;;;5072199;28;19971;-65
2023/04/09 02:31:57;;;;;;;;;;;8.50;99.90;;;;;;5070789;28;20018;-68
2023/04/09 02:34:23;;;;;;;;;;;8.50;99.90;;;;;;5054260;28;19924;-65
2023/04/09 02:36:48;;;;;;;;;;;8.50;99.90;;;;;;5072319;28;19925;-64
2023/04/09 02:39:14;;;;;;;;;;;8.50;99.90;;;;;;5071015;28;19952;-65
2023/04/09 02:41:40;;;;;;;;;;;8.40;99.90;;;;;;5074057;28;19929;-66
2023/04/09 02:44:05;;;;;;;;;;;8.40;99.90;;;;;;5073960;28;19951;-65
2023/04/09 02:46:31;;;;;;;;;;;8.40;99.90;;;;;;5074304;28;19939;-65
2023/04/09 02:48:56;;;;;;;;;;;8.40;99.90;;;;;;5073994;28;19971;-64
2023/04/09 02:51:22;;;;;;;;;;;8.40;99.90;;;;;;5074005;28;20002;-64
2023/04/09 02:53:48;;;;;;;;;;;8.40;99.90;;;;;;5091881;28;19928;-66
2023/04/09 02:56:13;;;;;;;;;;;8.40;99.90;;;;;;5091091;28;19924;-65
2023/04/09 02:58:39;;;;;;;;;;;8.40;99.90;;;;;;5057683;28;20373;-65
2023/04/09 03:01:05;;;;;;;;;;;8.30;99.90;;;;;;5040397;28;19931;-65
2023/04/09 03:03:30;;;;;;;;;;;8.30;99.90;;;;;;5074022;28;19928;-64
2023/04/09 03:05:56;;;;;;;;;;;8.30;99.90;;;;;;5078452;28;19924;-66
2023/04/09 03:08:21;;;;;;;;;;;8.30;99.90;;;;;;5077690;28;19938;-65
2023/04/09 03:10:47;;;;;;;;;;;8.30;99.90;;;;;;5096155;28;19930;-65
2023/04/09 03:13:13;;;;;;;;;;;8.30;99.90;;;;;;5095535;28;20346;-65
2023/04/09 03:15:38;;;;;;;;;;;8.20;99.90;;;;;;5095875;28;19974;-64
2023/04/09 03:18:04;;;;;;;;;;;8.20;99.90;;;;;;5077999;28;20298;-67
2023/04/09 03:20:30;;;;;;;;;;;8.20;99.90;;;;;;5060807;28;20300;-64
2023/04/09 03:22:55;;;;;;;;;;;8.20;99.90;;;;;;5060958;28;19924;-65
2023/04/09 03:25:21;;;;;;;;;;;8.20;99.90;;;;;;5060698;28;20396;-64
2023/04/09 03:27:46;;;;;;;;;;;8.20;99.90;;;;;;5077661;28;19963;-64
2023/04/09 03:30:12;;;;;;;;;;;8.20;99.90;;;;;;5077315;28;20377;-65
2023/04/09 03:32:38;;;;;;;;;;;8.20;99.90;;;;;;5077864;28;19971;-65
2023/04/09 03:35:03;;;;;;;;;;;8.20;99.90;;;;;;5077754;28;20385;-65
2023/04/09 03:37:29;;;;;;;;;;;8.20;99.90;;;;;;5095023;28;20007;-65
2023/04/09 03:39:54;;;;;;;;;;;8.20;99.90;;;;;;5077237;28;19924;-65
2023/04/09 03:42:20;;;;;;;;;;;8.20;99.90;;;;;;5094986;28;19928;-65
2023/04/09 03:44:46;;;;;;;;;;;8.20;99.90;;;;;;5060899;28;19935;-65
2023/04/09 03:47:11;;;;;;;;;;;8.20;99.90;;;;;;5060525;28;19991;-68
2023/04/09 03:49:37;;;;;;;;;;;8.20;99.90;;;;;;5077280;28;20276;-65
2023/04/09 03:52:02;;;;;;;;;;;8.20;99.90;;;;;;5077479;28;19974;-65
2023/04/09 03:54:28;;;;;;;;;;;8.10;99.90;;;;;;5077065;28;19924;-66
2023/04/09 03:56:55;;;;;;;;;;;8.10;99.90;;;;;;5095032;28;19943;-66
2023/04/09 03:59:20;;;;;;;;;;;8.10;99.90;;;;;;5060317;28;20018;-65
2023/04/09 04:01:46;;;;;;;;;;;8.10;99.90;;;;;;5094716;28;20058;-66
2023/04/09 04:04:12;;;;;;;;;;;8.10;99.90;;;;;;5060611;28;19924;-65
2023/04/09 04:06:38;;;;;;;;;;;8.00;99.90;;;;;;5076623;28;19924;-64
2023/04/09 04:09:04;;;;;;;;;;;8.10;99.90;;;;;;5094891;28;19931;-65
2023/04/09 04:11:29;;;;;;;;;;;8.00;99.90;;;;;;5043290;28;19947;-65
2023/04/09 04:13:55;;;;;;;;;;;8.00;99.90;;;;;;5094978;28;19928;-66
2023/04/09 04:16:20;;;;;;;;;;;8.00;99.90;;;;;;5075121;28;20322;-64
2023/04/09 04:18:46;;;;;;;;;;;8.00;99.90;;;;;;5077010;28;20070;-67
2023/04/09 04:21:15;;;;;;;;;;;8.00;99.90;;;;;;5076627;28;19935;-66
2023/04/09 04:23:41;;;;;;;;;;;8.00;99.90;;;;;;5076351;28;19981;-65
2023/04/09 04:26:08;;;;;;;;;;;8.00;99.90;;;;;;5076851;28;19978;-65
2023/04/09 04:28:35;;;;;;;;;;;8.00;99.90;;;;;;5075945;28;19924;-65
2023/04/09 04:31:01;;;;;;;;;;;8.00;99.90;;;;;;5060080;28;19975;-65
2023/04/09 04:33:26;;;;;;;;;;;8.00;99.90;;;;;;5094278;28;19974;-65
2023/04/09 04:35:52;;;;;;;;;;;8.00;99.90;;;;;;5060004;28;19967;-64
2023/04/09 04:38:17;;;;;;;;;;;8.00;99.90;;;;;;5059623;28;19925;-65
2023/04/09 04:40:43;;;;;;;;;;;8.00;99.90;;;;;;5055613;28;19924;-65
2023/04/09 04:43:09;;;;;;;;;;;8.10;99.90;;;;;;5074044;28;19970;-65
2023/04/09 04:45:34;;;;;;;;;;;8.10;99.90;;;;;;5072630;28;20022;-65
2023/04/09 04:48:00;;;;;;;;;;;8.10;99.90;;;;;;5056288;28;20015;-65
2023/04/09 04:50:25;;;;;;;;;;;8.10;99.90;;;;;;5073546;28;19924;-65
2023/04/09 04:52:51;;;;;;;;;;;8.10;99.90;;;;;;5073069;28;19947;-65
2023/04/09 04:55:17;;;;;;;;;;;8.10;99.90;;;;;;5073849;28;19924;-65
2023/04/09 04:57:42;;;;;;;;;;;8.10;99.90;;;;;;5055900;28;19979;-65
2023/04/09 05:00:08;;;;;;;;;;;8.10;99.90;;;;;;5072691;28;19974;-65
2023/04/09 05:02:34;;;;;;;;;;;8.10;99.90;;;;;;5072193;28;20267;-65
2023/04/09 05:05:00;;;;;;;;;;;8.10;99.90;;;;;;5072605;28;20289;-64
2023/04/09 05:07:25;;;;;;;;;;;8.10;99.90;;;;;;5072026;28;19932;-67
2023/04/09 05:09:51;;;;;;;;;;;8.10;99.90;;;;;;5072403;28;19925;-64
2023/04/09 05:12:16;;;;;;;;;;;8.10;99.90;;;;;;5072485;28;20432;-66
2023/04/09 05:14:42;;;;;;;;;;;8.10;99.90;;;;;;5072297;28;19924;-65
2023/04/09 05:17:08;;;;;;;;;;;8.10;99.90;;;;;;5072246;28;19931;-65
2023/04/09 05:19:34;;;;;;;;;;;8.10;99.90;;;;;;5055281;28;19925;-64
2023/04/09 05:21:59;;;;;;;;;;;8.10;99.90;;;;;;5055298;28;19973;-63
2023/04/09 05:24:25;;;;;;;;;;;8.10;99.90;;;;;;5072253;28;19925;-65
2023/04/09 05:26:50;;;;;;;;;;;8.10;99.90;;;;;;5071232;28;19932;-64
2023/04/09 05:29:16;;;;;;;;;;;8.10;99.90;;;;;;5072046;28;20446;-64
2023/04/09 05:31:42;;;;;;;;;;;8.10;99.90;;;;;;5072701;28;19947;-65
2023/04/09 05:34:07;;;;;;;;;;;8.10;99.90;;;;;;5073066;28;19974;-64
2023/04/09 05:36:33;;;;;;;;;;;8.10;99.90;;;;;;5055177;28;20013;-65
2023/04/09 05:38:59;;;;;;;;;;;8.10;99.90;;;;;;5071897;28;19930;-64
2023/04/09 05:41:24;;;;;;;;;;;8.10;99.90;;;;;;5071458;28;19978;-64
2023/04/09 05:43:50;;;;;;;;;;;8.10;99.90;;;;;;5071566;28;20333;-65
2023/04/09 05:46:16;;;;;;;;;;;8.10;99.90;;;;;;5071683;28;19975;-65
2023/04/09 05:48:41;;;;;;;;;;;8.10;99.90;;;;;;5072536;28;20349;-64
2023/04/09 05:51:08;;;;;;;;;;;8.20;99.90;;;;;;5072753;28;19925;-64
2023/04/09 05:53:34;;;;;;;;;;;8.20;99.90;;;;;;5071062;28;19932;-66
2023/04/09 05:55:59;;;;;;;;;;;8.20;99.90;;;;;;5071466;28;19924;-66
2023/04/09 05:58:27;;;;;;;;;;;8.20;99.90;;;;;;5071467;28;20015;-64
2023/04/09 06:00:52;;;;;;;;;;;8.30;99.90;;;;;;5072100;28;19925;-64
2023/04/09 06:03:18;;;;;;;;;;;8.20;99.90;;;;;;5054484;28;19924;-65
2023/04/09 06:05:44;;;;;;;;;;;8.20;99.90;;;;;;5071188;28;19925;-65
2023/04/09 06:08:10;;;;;;;;;;;8.20;99.90;;;;;;5054844;28;20370;-65
2023/04/09 06:10:35;;;;;;;;;;;8.20;99.90;;;;;;5054664;28;20022;-67
2023/04/09 06:13:01;;;;;;;;;;;8.20;99.90;;;;;;5072183;28;20254;-65
2023/04/09 06:15:26;;;;;;;;;;;8.20;99.90;;;;;;5072241;28;19925;-65
2023/04/09 06:17:52;;;;;;;;;;;8.20;99.90;;;;;;5070978;28;19947;-65
2023/04/09 06:20:18;;;;;;;;;;;8.20;99.90;;;;;;5070930;28;19936;-65
2023/04/09 06:22:43;;;;;;;;;;;8.20;99.90;;;;;;5071649;28;20285;-65
2023/04/09 06:25:09;;;;;;;;;;;8.20;99.90;;;;;;5070788;28;19924;-66
2023/04/09 06:27:34;;;;;;;;;;;8.30;99.90;;;;;;5071113;28;19947;-68
2023/04/09 06:30:00;;;;;;;;;;;8.30;99.90;;;;;;5053977;28;19924;-66
2023/04/09 06:32:26;;;;;;;;;;;8.30;99.90;;;;;;5071080;28;19928;-65
2023/04/09 06:34:51;;;;;;;;;;;8.30;99.90;;;;;;5070566;28;20397;-65
2023/04/09 06:37:17;;;;;;;;;;;8.30;99.90;;;;;;5070813;28;20009;-64
2023/04/09 06:39:42;;;;;;;;;;;8.30;99.90;;;;;;5069528;28;19932;-67
2023/04/09 06:42:08;;;;;;;;;;;8.30;99.90;;;;;;5071942;28;19924;-65
2023/04/09 06:44:34;;;;;;;;;;;8.30;99.90;;;;;;5054037;28;20111;-64
2023/04/09 06:46:59;;;;;;;;;;;8.30;99.90;;;;;;5070311;28;20290;-64
2023/04/09 06:49:25;;;;;;;;;;;8.30;99.90;;;;;;5070856;28;19931;-64
2023/04/09 06:51:52;;;;;;;;;;;8.30;99.90;;;;;;5071502;28;19940;-64
2023/04/09 06:54:18;;;;;;;;;;;8.30;99.90;;;;;;5070654;28;19925;-64
2023/04/09 06:56:44;;;;;;;;;;;8.30;99.90;;;;;;5071550;28;19931;-68
2023/04/09 06:59:10;;;;;;;;;;;8.30;99.90;;;;;;5071955;28;19929;-64
2023/04/09 07:01:36;;;;;;;;;;;8.30;99.90;;;;;;5070649;28;19925;-64
2023/04/09 07:04:02;;;;;;;;;;;8.30;99.90;;;;;;5070162;28;19925;-65
2023/04/09 07:06:27;;;;;;;;;;;8.30;99.90;;;;;;5071614;28;20072;-65
2023/04/09 07:08:53;;;;;;;;;;;8.40;99.90;;;;;;5053670;28;19928;-65
2023/04/09 07:11:19;;;;;;;;;;;8.50;99.90;;;;;;5071751;28;20285;-64
2023/04/09 07:13:44;;;;;;;;;;;8.40;99.90;;;;;;5070663;28;19924;-67
2023/04/09 07:16:10;;;;;;;;;;;8.50;99.90;;;;;;5037166;28;19953;-65
2023/04/09 07:18:36;;;;;;;;;;;8.50;99.90;;;;;;5070679;28;19925;-65
2023/04/09 07:21:01;;;;;;;;;;;8.40;99.90;;;;;;5071138;28;19924;-64
2023/04/09 07:23:27;;;;;;;;;;;8.40;99.90;;;;;;5053359;28;19925;-63
2023/04/09 07:25:52;;;;;;;;;;;8.40;99.90;;;;;;5069739;28;19925;-66
2023/04/09 07:28:20;;;;;;;;;;;8.50;99.90;;;;;;5069778;28;20225;-64
2023/04/09 07:30:45;;;;;;;;;;;8.50;99.90;;;;;;5071430;28;20344;-64
2023/04/09 07:33:11;;;;;;;;;;;8.50;99.90;;;;;;5070042;28;19924;-63
2023/04/09 07:35:37;;;;;;;;;;;8.60;99.90;;;;;;5070311;28;19951;-64
2023/04/09 07:38:02;;;;;;;;;;;8.50;99.90;;;;;;5069754;28;19974;-63
2023/04/09 07:40:28;;;;;;;;;;;8.50;99.90;;;;;;5082045;28;19931;-64
2023/04/09 07:42:54;;;;;;;;;;;8.50;99.90;;;;;;5056016;28;19924;-63
2023/04/09 07:45:20;;;;;;;;;;;8.60;99.90;;;;;;5073305;28;19928;-64
2023/04/09 07:47:46;;;;;;;;;;;8.70;99.90;;;;;;5073476;28;19931;-63
2023/04/09 07:50:11;;;;;;;;;;;8.80;99.90;;;;;;5092343;28;19920;-65
2023/04/09 07:52:37;;;;;;;;;;;8.80;99.90;;;;;;5060528;28;19931;-65
2023/04/09 07:55:03;;;;;;;;;;;8.80;99.90;;;;;;5076742;28;19931;-64
2023/04/09 07:57:32;;;;;;;;;;;8.90;99.90;;;;;;5094985;28;19928;-64
2023/04/09 07:59:57;;;;;;;;;;;8.90;99.90;;;;;;5094412;28;20392;-65
2023/04/09 08:02:23;;;;;;;;;;;9.00;99.90;;;;;;5060122;28;20017;-65
2023/04/09 08:04:48;;;;;;;;;;;9.00;99.90;;;;;;5095001;28;19928;-65
2023/04/09 08:07:14;;;;;;;;;;;9.00;99.90;;;;;;5076463;28;19996;-66
2023/04/09 08:09:40;;;;;;;;;;;9.00;99.90;;;;;;5094809;28;19932;-64
2023/04/09 08:12:05;;;;;;;;;;;9.10;99.90;;;;;;5076578;28;20369;-65
2023/04/09 08:14:31;;;;;;;;;;;9.20;99.90;;;;;;5076438;28;20316;-64
2023/04/09 08:16:57;;;;;;;;;;;9.20;99.90;;;;;;5076244;28;19924;-64
2023/04/09 08:19:23;;;;;;;;;;;9.20;99.90;;;;;;5076785;28;20018;-64
2023/04/09 08:21:49;;;;;;;;;;;9.30;99.90;;;;;;5094622;28;20008;-63
2023/04/09 08:24:15;;;;;;;;;;;9.30;99.90;;;;;;5059487;28;20510;-64
2023/04/09 08:26:40;;;;;;;;;;;9.30;99.90;;;;;;5094354;28;20296;-64
2023/04/09 08:29:06;;;;;;;;;;;9.30;99.90;;;;;;5059379;28;20026;-65
2023/04/09 08:31:32;;;;;;;;;;;9.20;99.90;;;;;;5076269;28;19976;-63
2023/04/09 08:33:58;;;;;;;;;;;9.20;99.90;;;;;;5076027;28;20390;-67
2023/04/09 08:36:25;;;;;;;;;;;9.20;99.90;;;;;;5059343;28;19931;-64
2023/04/09 08:38:51;;;;;;;;;;;9.20;99.90;;;;;;5094226;28;19932;-64
2023/04/09 08:41:18;;;;;;;;;;;9.30;99.90;;;;;;5093985;28;19935;-64
2023/04/09 08:43:45;;;;;;;;;;;9.40;99.90;;;;;;5076177;28;19928;-64
2023/04/09 08:46:11;;;;;;;;;;;9.40;99.90;;;;;;5075690;28;19928;-63
2023/04/09 08:48:41;;;;;;;;;;;9.40;99.90;;;;;;5093947;28;19924;-65
2023/04/09 08:51:06;;;;;;;;;;;9.40;99.90;;;;;;5093447;28;20381;-66
2023/04/09 08:53:32;;;;;;;;;;;9.40;99.90;;;;;;5042637;28;19924;-65
2023/04/09 08:55:58;;;;;;;;;;;9.50;99.90;;;;;;5075960;28;19932;-65
2023/04/09 08:58:24;;;;;;;;;;;9.60;99.90;;;;;;5059422;28;19989;-65
2023/04/09 09:00:50;;;;;;;;;;;9.60;99.90;;;;;;5059181;28;19928;-66
2023/04/09 09:03:16;;;;;;;;;;;9.70;99.90;;;;;;5091808;28;20289;-66
2023/04/09 09:05:42;;;;;;;;;;;9.70;99.90;;;;;;5074755;28;19924;-69
2023/04/09 09:08:12;;;;;;;;;;;9.70;99.90;;;;;;5075299;28;19979;-67
2023/04/09 09:10:42;;;;;;;;;;;9.70;99.90;;;;;;5075612;28;19932;-68
2023/04/09 09:13:21;;;;;;;;;;;9.80;99.90;;;;;;5075362;28;19984;-66
2023/04/09 09:15:49;;;;;;;;;;;9.90;99.90;;;;;;5074857;28;19935;-68
2023/04/09 09:18:15;;;;;;;;;;;9.90;99.90;;;;;;5092887;28;20288;-67
2023/04/09 09:20:41;;;;;;;;;;;10.00;99.90;;;;;;5075374;28;20338;-67
2023/04/09 09:23:07;;;;;;;;;;;10.10;99.90;;;;;;5074628;28;19924;-67
2023/04/09 09:25:40;;;;;;;;;;;10.10;99.90;;;;;;5058220;28;19924;-67
2023/04/09 09:28:10;;;;;;;;;;;10.30;99.90;;;;;;5074308;28;20026;-72
2023/04/09 09:30:37;;;;;;;;;;;10.30;99.90;;;;;;5075228;28;19924;-67
2023/04/09 09:33:07;;;;;;;;;;;10.40;99.90;;;;;;5074554;28;20391;-66
2023/04/09 09:35:45;;;;;;;;;;;10.40;99.90;;;;;;5092679;28;19978;-65
2023/04/09 09:38:11;;;;;;;;;;;10.40;99.90;;;;;;5073866;28;19924;-65
2023/04/09 09:40:37;;;;;;;;;;;10.30;99.90;;;;;;5040634;28;20391;-69
2023/04/09 09:43:02;;;;;;;;;;;10.40;99.90;;;;;;5092432;28;19924;-65
2023/04/09 09:45:28;;;;;;;;;;;10.40;99.90;;;;;;5074272;28;19931;-65
2023/04/09 09:47:53;;;;;;;;;;;10.50;99.90;;;;;;5058392;28;19924;-66
2023/04/09 09:50:22;;;;;;;;;;;10.60;99.90;;;;;;5074518;28;19946;-66
2023/04/09 09:52:48;;;;;;;;;;;10.60;99.90;;;;;;5057740;28;19924;-65
2023/04/09 09:55:14;;;;;;;;;;;10.70;99.90;;;;;;5074132;28;19924;-66
2023/04/09 09:57:43;;;;;;;;;;;10.70;99.90;;;;;;5057717;28;19928;-68
2023/04/09 10:00:10;;;;;;;;;;;10.80;99.90;;;;;;5092126;28;20027;-70
2023/04/09 10:02:39;;;;;;;;;;;10.80;99.90;;;;;;5074209;28;19973;-65
2023/04/09 10:05:05;;;;;;;;;;;10.90;99.90;;;;;;5074313;28;20369;-66
2023/04/09 10:07:31;;;;;;;;;;;11.00;99.90;;;;;;5073361;28;19924;-66
2023/04/09 10:09:57;;;;;;;;;;;11.10;99.90;;;;;;5092140;28;20361;-67
2023/04/09 10:12:23;;;;;;;;;;;11.20;99.90;;;;;;5057307;28;19924;-67
2023/04/09 10:14:51;;;;;;;;;;;11.30;99.90;;;;;;5074709;28;19931;-66
2023/04/09 10:17:16;;;;;;;;;;;11.40;99.90;;;;;;5074229;28;20278;-67
2023/04/09 10:19:45;;;;;;;;;;;11.40;99.90;;;;;;5092120;28;20061;-66
2023/04/09 10:22:12;;;;;;;;;;;11.40;99.90;;;;;;5057121;28;19928;-69
2023/04/09 10:24:38;;;;;;;;;;;11.60;99.90;;;;;;5057063;28;19927;-66
2023/04/09 10:27:10;;;;;;;;;;;11.70;99.90;;;;;;5074425;28;19924;-66
2023/04/09 10:29:41;;;;;;;;;;;11.80;99.90;;;;;;5072676;28;19932;-67
2023/04/09 10:32:07;;;;;;;;;;;12.10;99.90;;;;;;5057354;28;20436;-66
2023/04/09 10:34:51;;;;;;;;;;;12.30;99.90;;;;;;5073701;28;20032;-66
2023/04/09 10:37:21;;;;;;;;;;;12.50;99.90;;;;;;5073719;28;20023;-67
2023/04/09 10:39:47;;;;;;;;;;;12.80;99.90;;;;;;5073667;28;19924;-65
2023/04/09 10:42:13;;;;;;;;;;;12.90;99.90;;;;;;5073722;28;19931;-66
2023/04/09 10:44:40;;;;;;;;;;;12.90;99.90;;;;;;5073501;28;19924;-65
2023/04/09 10:47:06;;;;;;;;;;;12.90;99.90;;;;;;5073720;28;19931;-67
2023/04/09 10:49:36;;;;;;;;;;;12.80;99.90;;;;;;5056437;28;19924;-65
2023/04/09 10:52:03;;;;;;;;;;;12.70;99.90;;;;;;5073874;28;19924;-67
2023/04/09 10:54:32;;;;;;;;;;;12.70;99.90;;;;;;5073478;28;19971;-67
2023/04/09 10:57:06;;;;;;;;;;;12.70;99.90;;;;;;5056996;28;20385;-67
2023/04/09 10:59:32;;;;;;;;;;;12.70;99.90;;;;;;5073557;28;19924;-67
2023/04/09 11:01:58;;;;;;;;;;;12.80;99.90;;;;;;5073711;28;19925;-67
2023/04/09 11:04:30;;;;;;;;;;;12.80;99.90;;;;;;5090944;28;20270;-66
2023/04/09 11:06:56;;;;;;;;;;;12.80;99.90;;;;;;5056920;28;19924;-67
2023/04/09 11:09:21;;;;;;;;;;;12.80;99.90;;;;;;5056439;28;19924;-66
2023/04/09 11:11:53;;;;;;;;;;;12.90;99.90;;;;;;5056512;28;20022;-67
2023/04/09 11:14:19;;;;;;;;;;;12.90;99.90;;;;;;5072930;28;19971;-70
2023/04/09 11:16:46;;;;;;;;;;;12.90;99.90;;;;;;5056966;28;20014;-68
2023/04/09 11:19:12;;;;;;;;;;;12.90;99.90;;;;;;5073129;28;20093;-67
2023/04/09 11:21:44;;;;;;;;;;;12.90;99.90;;;;;;5073086;28;20412;-68
2023/04/09 11:24:17;;;;;;;;;;;13.00;99.90;;;;;;5057319;28;19928;-67
2023/04/09 11:26:44;;;;;;;;;;;13.00;99.90;;;;;;5076669;28;19993;-68
2023/04/09 11:29:10;;;;;;;;;;;13.00;99.90;;;;;;5076462;28;20250;-69
2023/04/09 11:31:36;;;;;;;;;;;12.90;99.90;;;;;;5076815;28;19934;-67
2023/04/09 11:34:02;;;;;;;;;;;12.80;99.90;;;;;;5076786;28;19971;-70
2023/04/09 11:36:27;;;;;;;;;;;12.80;99.90;;;;;;5094827;28;20444;-68
2023/04/09 11:38:56;;;;;;;;;;;12.80;99.90;;;;;;5060714;28;20015;-67
2023/04/09 11:41:37;;;;;;;;;;;12.80;99.90;;;;;;5059831;28;20405;-68
2023/04/09 11:44:03;;;;;;;;;;;12.80;99.90;;;;;;5077057;28;20369;-66
2023/04/09 11:46:33;;;;;;;;;;;12.90;99.90;;;;;;5076605;28;19924;-66
2023/04/09 11:48:58;;;;;;;;;;;12.90;99.90;;;;;;5060692;28;20003;-66
2023/04/09 11:51:26;;;;;;;;;;;12.90;99.90;;;;;;5095176;28;20073;-70
2023/04/09 11:53:51;;;;;;;;;;;13.00;99.90;;;;;;5077063;28;20030;-65
2023/04/09 11:56:17;;;;;;;;;;;13.10;99.90;;;;;;5060675;28;19963;-67
2023/04/09 11:58:46;;;;;;;;;;;13.10;99.90;;;;;;5076340;28;20377;-67
2023/04/09 12:01:12;;;;;;;;;;;13.10;99.90;;;;;;5076802;28;19931;-67
2023/04/09 12:03:38;;;;;;;;;;;13.30;99.90;;;;;;5076121;28;19939;-67
2023/04/09 12:06:04;;;;;;;;;;;13.40;99.90;;;;;;5059868;28;20289;-66
2023/04/09 12:08:33;;;;;;;;;;;13.50;99.90;;;;;;5076275;28;19971;-66
2023/04/09 12:11:15;;;;;;;;;;;13.50;99.90;;;;;;5076396;28;20366;-67
2023/04/09 12:13:43;;;;;;;;;;;13.50;99.90;;;;;;5059707;28;20103;-66
2023/04/09 12:16:09;;;;;;;;;;;13.50;99.90;;;;;;5059587;28;19932;-65
2023/04/09 12:18:36;;;;;;;;;;;13.60;99.90;;;;;;5076186;28;20000;-66
2023/04/09 12:21:02;;;;;;;;;;;13.50;99.90;;;;;;5059889;28;19931;-66
2023/04/09 12:23:27;;;;;;;;;;;13.60;99.90;;;;;;5094191;28;20018;-67
2023/04/09 12:25:54;;;;;;;;;;;13.60;99.90;;;;;;5058698;28;19924;-66
2023/04/09 12:28:19;;;;;;;;;;;13.70;99.90;;;;;;5059031;28;19928;-67
2023/04/09 12:30:45;;;;;;;;;;;13.70;99.90;;;;;;5074873;28;20023;-67
2023/04/09 12:33:11;;;;;;;;;;;13.70;99.90;;;;;;5076071;28;19990;-66
2023/04/09 12:35:37;;;;;;;;;;;13.70;99.90;;;;;;5042176;28;20017;-67
2023/04/09 12:38:03;;;;;;;;;;;13.80;99.90;;;;;;5075356;28;20018;-67
2023/04/09 12:40:29;;;;;;;;;;;13.80;99.90;;;;;;5076070;28;19924;-67
2023/04/09 12:42:55;;;;;;;;;;;13.80;99.90;;;;;;5093644;28;19932;-66
2023/04/09 12:45:21;;;;;;;;;;;13.80;99.90;;;;;;5076369;28;20015;-68
2023/04/09 12:47:46;;;;;;;;;;;13.80;99.90;;;;;;5075382;28;19974;-66
2023/04/09 12:50:13;;;;;;;;;;;13.80;99.90;;;;;;5075816;28;19960;-67
2023/04/09 12:52:39;;;;;;;;;;;13.80;99.90;;;;;;5074898;28;19924;-68
2023/04/09 12:55:05;;;;;;;;;;;13.90;99.90;;;;;;5075870;28;20389;-67
2023/04/09 12:57:31;;;;;;;;;;;13.90;99.90;;;;;;5076045;28;19938;-67
2023/04/09 12:59:57;;;;;;;;;;;13.80;99.90;;;;;;5093131;28;20293;-67
2023/04/09 13:02:22;;;;;;;;;;;13.80;99.90;;;;;;5075241;28;20007;-67
2023/04/09 13:04:48;;;;;;;;;;;13.80;99.90;;;;;;5041972;28;19923;-67
2023/04/09 13:07:14;;;;;;;;;;;13.80;99.90;;;;;;5059284;28;19931;-67
2023/04/09 13:09:49;;;;;;;;;;;13.80;99.90;;;;;;5075081;28;19990;-66
2023/04/09 13:12:15;;;;;;;;;;;13.90;99.90;;;;;;5075963;28;19924;-68
2023/04/09 13:14:42;;;;;;;;;;;13.90;99.90;;;;;;5075095;28;19973;-66
2023/04/09 13:17:07;;;;;;;;;;;14.00;99.90;;;;;;5093352;28;20385;-65
2023/04/09 13:19:33;;;;;;;;;;;14.00;99.90;;;;;;5075621;28;19924;-65
2023/04/09 13:21:59;;;;;;;;;;;14.10;99.90;;;;;;5075111;28;19940;-67
2023/04/09 13:24:24;;;;;;;;;;;14.10;99.90;;;;;;5075572;28;19931;-67
2023/04/09 13:26:50;;;;;;;;;;;14.10;99.90;;;;;;5075160;28;19983;-66
2023/04/09 13:29:16;;;;;;;;;;;14.20;99.90;;;;;;5075361;28;19992;-66
2023/04/09 13:31:42;;;;;;;;;;;14.20;99.90;;;;;;5074678;28;19931;-67
2023/04/09 13:34:07;;;;;;;;;;;14.20;99.90;;;;;;5074907;28;20285;-67
2023/04/09 13:36:33;;;;;;;;;;;14.20;99.90;;;;;;5074853;28;20376;-67
2023/04/09 13:39:03;;;;;;;;;;;14.30;99.90;;;;;;5074796;28;19924;-66
2023/04/09 13:41:31;;;;;;;;;;;14.30;99.90;;;;;;5074097;28;19928;-68
2023/04/09 13:43:57;;;;;;;;;;;14.30;99.90;;;;;;5073813;28;19953;-66
2023/04/09 13:46:23;;;;;;;;;;;14.30;99.90;;;;;;5092519;28;19928;-67
2023/04/09 13:48:48;;;;;;;;;;;14.30;99.90;;;;;;5091987;28;19924;-67
2023/04/09 13:51:14;;;;;;;;;;;14.30;99.90;;;;;;5074155;28;19971;-66
2023/04/09 13:53:40;;;;;;;;;;;14.30;99.90;;;;;;5040335;28;19935;-68
2023/04/09 13:56:06;;;;;;;;;;;14.30;99.90;;;;;;5057365;28;19931;-67
2023/04/09 13:58:31;;;;;;;;;;;14.30;99.90;;;;;;5074723;28;19924;-68
2023/04/09 14:00:57;;;;;;;;;;;14.30;99.90;;;;;;5074581;28;20316;-67
2023/04/09 14:03:22;;;;;;;;;;;14.30;99.90;;;;;;5092714;28;19955;-68
2023/04/09 14:05:48;;;;;;;;;;;14.30;99.90;;;;;;5092662;28;19931;-68
2023/04/09 14:08:15;;;;;;;;;;;14.30;99.90;;;;;;5075019;28;19947;-68
2023/04/09 14:10:40;;;;;;;;;;;14.30;99.90;;;;;;5075012;28;19928;-68
2023/04/09 14:13:09;;;;;;;;;;;14.30;99.90;;;;;;5092359;28;20004;-67
2023/04/09 14:15:35;;;;;;;;;;;14.30;99.90;;;;;;5058267;28;19970;-67
2023/04/09 14:18:01;;;;;;;;;;;14.30;99.90;;;;;;5092304;28;19928;-68
2023/04/09 14:20:26;;;;;;;;;;;14.40;99.90;;;;;;5075017;28;19946;-68
2023/04/09 14:22:52;;;;;;;;;;;14.30;99.90;;;;;;5074249;28;20069;-68